Time;durP1;ratioP1;P1;durP2;ratioP2;P2;SDS_P1;SDS_P2;PMS_P1;PMS_P2;Temp;Humidity;BMP_temperature;BMP_pressure;BME280_temperature;BME280_humidity;BME280_pressure;Samples;Min_cycle;Max_cycle;Signal;HPM_P1;HPM_P2
2022/04/16 00:00:33;;;;;;;16.58;7.55;;;;;;;16.65;40.54;102718.19;4978643;28;20104;-71
2022/04/16 00:02:58;;;;;;;12.10;7.38;;;;;;;16.63;41.18;102709.31;4963235;28;20051;-71
2022/04/16 00:05:23;;;;;;;12.63;7.68;;;;;;;16.62;42.06;102710.31;4965086;28;20023;-69
2022/04/16 00:08:06;;;;;;;13.20;6.80;;;;;;;16.62;40.67;102707.59;4967792;28;20080;-70
2022/04/16 00:10:32;;;;;;;11.68;6.68;;;;;;;16.61;40.93;102710.44;4952559;28;20057;-70
2022/04/16 00:12:58;;;;;;;10.55;6.45;;;;;;;16.61;41.79;102711.28;4966701;28;20093;-71
2022/04/16 00:15:24;;;;;;;12.13;6.45;;;;;;;16.60;41.13;102703.28;4966197;28;20441;-71
2022/04/16 00:17:49;;;;;;;12.77;7.32;;;;;;;16.58;40.55;102706.09;4967519;28;20166;-71
2022/04/16 00:20:15;;;;;;;11.60;7.07;;;;;;;16.58;41.28;102708.81;4966114;28;20027;-70
2022/04/16 00:22:41;;;;;;;14.60;7.97;;;;;;;16.54;41.29;102707.34;4966091;28;20030;-71
2022/04/16 00:25:07;;;;;;;14.35;7.32;;;;;;;16.51;42.12;102710.25;4966045;28;20019;-70
2022/04/16 00:27:34;;;;;;;13.27;6.68;;;;;;;16.49;40.56;102701.41;4967279;28;20019;-70
2022/04/16 00:30:00;;;;;;;11.82;6.82;;;;;;;16.48;41.85;102701.50;4950446;28;20053;-71
2022/04/16 00:32:25;;;;;;;12.80;6.80;;;;;;;16.48;40.93;102698.81;4948227;28;20054;-70
2022/04/16 00:34:50;;;;;;;15.00;8.75;;;;;;;16.47;42.14;102700.66;4966819;28;20015;-71
2022/04/16 00:37:16;;;;;;;12.40;7.45;;;;;;;16.46;40.75;102703.50;4966747;28;20563;-71
2022/04/16 00:39:42;;;;;;;15.27;7.40;;;;;;;16.44;41.21;102700.06;4965379;28;20069;-71
2022/04/16 00:42:07;;;;;;;12.02;6.95;;;;;;;16.41;42.15;102703.88;4967361;28;20022;-70
2022/04/16 00:44:33;;;;;;;13.75;7.90;;;;;;;16.38;42.30;102697.81;4965304;28;20040;-71
2022/04/16 00:46:58;;;;;;;13.60;7.50;;;;;;;16.36;40.96;102695.22;4966224;28;20070;-71
2022/04/16 00:49:23;;;;;;;16.15;8.18;;;;;;;16.34;41.02;102697.19;4965246;28;20027;-71
2022/04/16 00:51:49;;;;;;;16.88;7.90;;;;;;;16.34;42.62;102705.31;4957011;29;20050;-70
2022/04/16 00:54:15;;;;;;;13.65;6.85;;;;;;;16.31;42.36;102711.81;4957308;29;20027;-71
2022/04/16 00:56:40;;;;;;;16.65;7.38;;;;;;;16.28;42.00;102708.50;4939726;29;20518;-71
2022/04/16 00:59:06;;;;;;;12.73;7.88;;;;;;;16.25;41.85;102714.13;4957192;29;20051;-71
2022/04/16 01:01:32;;;;;;;14.00;8.35;;;;;;;16.22;41.90;102714.38;4956955;29;20027;-71
2022/04/16 01:03:59;;;;;;;14.93;8.13;;;;;;;16.23;42.20;102718.81;4957084;29;20035;-70
2022/04/16 01:06:34;;;;;;;12.10;8.13;;;;;;;16.22;41.43;102717.06;4955640;29;20372;-70
2022/04/16 01:09:00;;;;;;;15.32;6.88;;;;;;;16.19;41.65;102720.88;4956854;29;20039;-70
2022/04/16 01:11:25;;;;;;;11.80;7.10;;;;;;;16.19;42.94;102731.69;4956861;29;20031;-70
2022/04/16 01:13:51;;;;;;;16.30;7.85;;;;;;;16.18;41.38;102729.13;4955405;28;20027;-70
2022/04/16 01:16:16;;;;;;;13.45;8.55;;;;;;;16.17;41.92;102727.41;4955785;29;20511;-70
2022/04/16 01:18:48;;;;;;;18.10;8.48;;;;;;;16.16;41.42;102731.09;4956681;29;20388;-71
2022/04/16 01:21:14;;;;;;;14.18;7.38;;;;;;;16.15;41.71;102730.22;4956473;29;20042;-71
2022/04/16 01:23:39;;;;;;;13.18;7.78;;;;;;;16.14;42.80;102736.59;4955143;29;20150;-70
2022/04/16 01:26:05;;;;;;;17.90;8.10;;;;;;;16.12;41.94;102735.00;4955426;29;20027;-70
2022/04/16 01:28:30;;;;;;;14.20;8.85;;;;;;;16.09;41.46;102727.13;4956398;29;20095;-71
2022/04/16 01:30:56;;;;;;;15.18;8.20;;;;;;;16.08;41.55;102733.53;4956497;29;20069;-71
2022/04/16 01:33:22;;;;;;;14.75;6.95;;;;;;;16.05;41.88;102734.59;4955336;29;20065;-71
2022/04/16 01:35:53;;;;;;;15.93;9.30;;;;;;;16.04;42.69;102734.75;4954825;29;20043;-71
2022/04/16 01:38:19;;;;;;;18.45;9.07;;;;;;;16.02;42.95;102734.00;4956591;29;20035;-70
2022/04/16 01:40:44;;;;;;;20.45;8.10;;;;;;;16.00;41.66;102738.66;4956244;29;20042;-71
2022/04/16 01:43:09;;;;;;;14.52;8.85;;;;;;;16.00;41.51;102741.34;4939173;29;20491;-70
2022/04/16 01:45:35;;;;;;;12.55;8.10;;;;;;;15.98;42.08;102748.72;4955001;29;20079;-71
2022/04/16 01:48:00;;;;;;;13.68;7.68;;;;;;;15.96;41.63;102742.56;4954713;29;20031;-71
2022/04/16 01:50:26;;;;;;;13.88;8.40;;;;;;;15.94;42.35;102748.09;4956164;29;20050;-71
2022/04/16 01:52:52;;;;;;;15.13;8.50;;;;;;;15.93;42.35;102740.97;4954977;29;20077;-71
2022/04/16 01:55:17;;;;;;;14.82;8.63;;;;;;;15.90;42.39;102741.19;4956159;29;20027;-70
2022/04/16 01:57:43;;;;;;;18.15;8.65;;;;;;;15.91;43.12;102736.66;4956210;29;20388;-70
2022/04/16 02:00:11;;;;;;;15.07;8.98;;;;;;;15.89;42.63;102734.06;4954405;29;20027;-71
2022/04/16 02:02:36;;;;;;;18.35;9.60;;;;;;;15.90;42.46;102734.94;4955751;29;20027;-70
2022/04/16 02:05:06;;;;;;;14.48;8.70;;;;;;;15.90;42.24;102748.44;4955786;29;20499;-71
2022/04/16 02:07:32;;;;;;;16.75;8.95;;;;;;;15.85;42.15;102742.53;4954712;29;20519;-71
2022/04/16 02:09:57;;;;;;;19.17;7.93;;;;;;;15.85;43.00;102737.13;4954805;29;20030;-71
2022/04/16 02:12:22;;;;;;;12.32;8.00;;;;;;;15.81;42.79;102741.03;4954575;29;20031;-71
2022/04/16 02:14:48;;;;;;;18.40;9.27;;;;;;;15.82;42.39;102737.34;4954274;29;20022;-71
2022/04/16 02:17:13;;;;;;;23.85;9.90;;;;;;;15.81;41.95;102743.72;4955551;29;20396;-70
2022/04/16 02:19:39;;;;;;;15.00;9.18;;;;;;;15.77;42.60;102743.13;4955784;29;20389;-71
2022/04/16 02:22:05;;;;;;;19.90;9.27;;;;;;;15.77;42.38;102739.56;4954583;29;20027;-71
2022/04/16 02:24:30;;;;;;;22.50;9.40;;;;;;;15.75;42.35;102745.06;4955501;29;20035;-70
2022/04/16 02:26:57;;;;;;;17.25;8.82;;;;;;;15.73;41.99;102750.59;4955129;28;20027;-71
2022/04/16 02:29:22;;;;;;;14.18;7.78;;;;;;;15.69;41.78;102751.78;4955400;29;20478;-71
2022/04/16 02:31:48;;;;;;;15.43;8.90;;;;;;;15.64;42.71;102751.28;4954134;29;20095;-70
2022/04/16 02:34:13;;;;;;;15.98;9.07;;;;;;;15.61;42.11;102750.63;4955136;29;20106;-71
2022/04/16 02:36:43;;;;;;;15.52;9.40;;;;;;;15.58;42.55;102746.31;4937521;29;20501;-71
2022/04/16 02:39:08;;;;;;;15.27;8.75;;;;;;;15.58;42.51;102749.03;4954916;29;20027;-70
2022/04/16 02:41:34;;;;;;;17.17;8.77;;;;;;;15.57;43.61;102760.81;4953917;29;20385;-70
2022/04/16 02:43:59;;;;;;;18.05;9.82;;;;;;;15.55;42.47;102757.34;4953793;29;20020;-71
2022/04/16 02:49:10;;;;;;;15.45;9.07;;;;;;;15.51;43.84;102771.22;4953851;29;20086;-70
2022/04/16 02:51:35;;;;;;;18.08;8.77;;;;;;;15.47;42.22;102775.09;4954957;28;20436;-71
2022/04/16 02:54:01;;;;;;;18.92;8.85;;;;;;;15.43;43.04;102768.19;4953908;29;20031;-70
2022/04/16 02:56:26;;;;;;;17.58;9.70;;;;;;;15.45;42.06;102772.50;4953822;29;20452;-71
2022/04/16 02:58:52;;;;;;;19.38;9.63;;;;;;;15.44;42.04;102776.16;4953811;29;20061;-71
2022/04/16 03:01:17;;;;;;;14.82;9.05;;;;;;;15.41;43.45;102770.97;4953774;29;20065;-70
2022/04/16 03:03:43;;;;;;;16.17;8.70;;;;;;;15.40;43.40;102769.28;4953778;29;20023;-71
2022/04/16 03:06:09;;;;;;;18.20;9.05;;;;;;;15.41;42.90;102772.84;4953597;29;20531;-71
2022/04/16 03:08:34;;;;;;;18.30;9.88;;;;;;;15.41;43.57;102773.69;4953505;29;20031;-70
2022/04/16 03:11:00;;;;;;;16.95;9.57;;;;;;;15.38;42.83;102776.59;4953239;29;20119;-71
2022/04/16 03:13:26;;;;;;;18.02;8.95;;;;;;;15.38;43.06;102773.06;4953434;29;20085;-72
2022/04/16 03:18:35;;;;;;;18.13;9.35;;;;;;;15.33;42.94;102777.91;4954509;29;20407;-70
2022/04/16 03:21:01;;;;;;;17.13;10.10;;;;;;;15.30;42.24;102779.00;4954554;29;20027;-70
2022/04/16 03:23:27;;;;;;;19.05;10.38;;;;;;;15.30;42.58;102772.78;4953225;29;20374;-72
2022/04/16 03:25:56;;;;;;;16.48;8.77;;;;;;;15.29;43.21;102774.59;4954741;29;20037;-70
2022/04/16 03:28:22;;;;;;;16.20;9.43;;;;;;;15.28;43.62;102777.41;4953203;29;20027;-72
2022/04/16 03:30:47;;;;;;;17.95;9.20;;;;;;;15.26;42.85;102782.91;4954462;29;20044;-70
2022/04/16 03:33:13;;;;;;;16.38;10.20;;;;;;;15.24;42.25;102776.78;4954463;29;20030;-71
2022/04/16 03:35:38;;;;;;;19.80;9.55;;;;;;;15.24;43.80;102790.28;4954349;29;20109;-70
2022/04/16 03:38:04;;;;;;;23.55;10.48;;;;;;;15.20;42.65;102786.06;4937679;29;20455;-71
2022/04/16 03:40:30;;;;;;;17.85;9.65;;;;;;;15.17;43.09;102783.59;4958215;29;20429;-71
2022/04/16 03:42:58;;;;;;;22.80;10.13;;;;;;;15.14;43.92;102784.66;4957131;29;20050;-70
2022/04/16 03:45:25;;;;;;;19.00;10.27;;;;;;;15.12;44.03;102791.16;4956980;29;20098;-71
2022/04/16 03:47:53;;;;;;;19.75;9.70;;;;;;;15.07;43.10;102779.84;4956862;29;20031;-71
2022/04/16 03:50:19;;;;;;;23.52;10.27;;;;;;;15.08;43.31;102784.22;4956889;29;20027;-70
2022/04/16 03:52:46;;;;;;;17.80;9.88;;;;;;;15.06;43.89;102775.41;4956917;29;20027;-71
2022/04/16 04:00:45;;;;;;;20.38;10.27;;;;;;;15.03;43.25;102786.41;4958072;29;20129;-70
2022/04/16 04:03:11;;;;;;;15.13;9.07;;;;;;;15.01;43.38;102791.94;4956725;29;20058;-71
2022/04/16 04:05:38;;;;;;;17.45;9.57;;;;;;;15.01;42.70;102791.06;4957790;29;20035;-71
2022/04/16 04:08:07;;;;;;;20.13;9.73;;;;;;;15.01;42.88;102782.97;4956571;29;20027;-71
2022/04/16 04:10:33;;;;;;;19.58;10.25;;;;;;;14.99;43.77;102784.91;4956665;29;20504;-71
2022/04/16 04:12:58;;;;;;;18.98;10.35;;;;;;;14.98;44.26;102794.84;4956351;29;20117;-71
2022/04/16 04:15:24;;;;;;;21.13;10.80;;;;;;;14.95;42.78;102788.78;4957553;29;20492;-70
2022/04/16 04:17:50;;;;;;;21.20;10.40;;;;;;;14.94;43.93;102790.63;4956508;29;20388;-71
2022/04/16 04:20:16;;;;;;;19.42;10.55;;;;;;;14.94;44.00;102792.47;4956382;29;20098;-70
2022/04/16 04:22:41;;;;;;;20.63;10.73;;;;;;;14.92;43.22;102799.81;4956357;29;20477;-70
2022/04/16 04:25:07;;;;;;;20.75;9.93;;;;;;;14.91;43.35;102803.47;4957748;29;20026;-71
2022/04/16 04:27:32;;;;;;;20.42;9.90;;;;;;;14.90;43.15;102808.03;4956416;29;20487;-70
2022/04/16 04:30:01;;;;;;;20.98;10.63;;;;;;;14.89;43.31;102802.72;4956129;29;20500;-71
2022/04/16 04:32:27;;;;;;;20.23;11.10;;;;;;;14.87;43.30;102816.34;4957386;29;20477;-71
2022/04/16 04:34:52;;;;;;;19.60;11.15;;;;;;;14.85;43.54;102810.16;4956020;29;20106;-70
2022/04/16 04:37:17;;;;;;;18.95;10.50;;;;;;;14.86;43.76;102811.03;4956967;29;20062;-71
2022/04/16 04:39:43;;;;;;;28.77;11.93;;;;;;;14.84;43.19;102819.25;4957362;29;20031;-70
2022/04/16 04:42:08;;;;;;;21.15;10.30;;;;;;;14.84;43.66;102821.06;4957155;29;20023;-71
2022/04/16 04:44:33;;;;;;;20.67;10.70;;;;;;;14.82;43.50;102821.19;4940221;29;20026;-71
2022/04/16 04:46:59;;;;;;;19.63;10.88;;;;;;;14.82;44.45;102829.28;4957229;29;20031;-71
2022/04/16 04:49:24;;;;;;;20.63;10.57;;;;;;;14.82;42.87;102828.44;4956886;28;20039;-70
2022/04/16 04:51:49;;;;;;;18.02;10.25;;;;;;;14.82;43.86;102836.50;4957165;29;20392;-71
2022/04/16 04:54:15;;;;;;;20.23;10.80;;;;;;;14.81;44.30;102832.09;4955777;29;20171;-71
2022/04/16 04:56:40;;;;;;;25.10;10.93;;;;;;;14.81;42.93;102832.94;4955754;29;20472;-71
2022/04/16 04:59:06;;;;;;;22.75;11.43;;;;;;;14.81;44.45;102840.16;4939652;29;20085;-71
2022/04/16 05:01:31;;;;;;;21.35;10.93;;;;;;;14.81;44.48;102841.03;4955798;29;20046;-70
2022/04/16 05:03:56;;;;;;;17.52;10.50;;;;;;;14.83;43.50;102840.91;4955678;29;20385;-70
2022/04/16 05:06:22;;;;;;;17.30;9.32;;;;;;;14.86;43.25;102846.09;4955618;29;20049;-71
2022/04/16 05:08:47;;;;;;;24.63;11.25;;;;;;;14.88;44.49;102852.28;4956819;29;20027;-71
2022/04/16 05:11:13;;;;;;;24.50;11.82;;;;;;;14.92;42.88;102851.94;4956768;29;20106;-70
2022/04/16 05:13:38;;;;;;;18.92;10.05;;;;;;;14.96;44.17;102849.91;4955284;29;20027;-71
2022/04/16 05:16:04;;;;;;;23.08;10.50;;;;;;;15.01;43.47;102851.31;4956701;29;20026;-71
2022/04/16 05:18:29;;;;;;;19.85;9.63;;;;;;;15.07;44.38;102858.94;4955362;29;20042;-71
2022/04/16 05:20:55;;;;;;;22.63;10.10;;;;;;;15.13;43.67;102863.91;4955377;29;20396;-71
2022/04/16 05:23:20;;;;;;;22.52;11.07;;;;;;;15.22;43.10;102862.41;4955268;29;20374;-72
2022/04/16 05:25:45;;;;;;;22.75;11.57;;;;;;;15.30;44.18;102870.81;4955219;29;20047;-69
2022/04/16 05:28:11;;;;;;;21.25;11.32;;;;;;;15.37;43.31;102865.84;4956372;29;20057;-70
2022/04/16 05:30:58;;;;;;;21.02;10.73;;;;;;;15.47;43.55;102867.81;4956525;29;20031;-71
2022/04/16 05:36:07;;;;;;;18.33;10.05;;;;;;;15.66;42.57;102868.19;4955056;29;20093;-69
2022/04/16 05:38:32;;;;;;;19.05;11.00;;;;;;;15.82;44.27;102877.88;4955014;29;20109;-71
2022/04/16 05:40:58;;;;;;;20.85;11.57;;;;;;;15.93;42.33;102872.56;4956290;29;20035;-70
2022/04/16 05:43:23;;;;;;;22.92;10.73;;;;;;;16.05;42.69;102877.06;4955130;29;20131;-70
2022/04/16 05:45:49;;;;;;;19.33;11.10;;;;;;;16.16;43.31;102872.53;4956159;29;20023;-71
2022/04/16 05:48:14;;;;;;;19.48;10.57;;;;;;;16.29;42.50;102872.50;4954634;29;20031;-71
2022/04/16 05:50:40;;;;;;;19.77;11.23;;;;;;;16.44;43.43;102875.88;4955825;29;20078;-70
2022/04/16 05:53:10;;;;;;;20.25;10.85;;;;;;;16.58;42.30;102886.56;4954805;29;20058;-71
2022/04/16 05:55:37;;;;;;;17.08;10.80;;;;;;;16.70;42.93;102878.34;4954859;29;20507;-70
2022/04/16 05:58:02;;;;;;;19.52;11.82;;;;;;;16.85;43.60;102879.00;4954837;29;20054;-70
2022/04/16 06:00:28;;;;;;;22.67;11.35;;;;;;;17.00;42.50;102876.94;4955583;28;20039;-70
2022/04/16 06:02:55;;;;;;;23.88;11.38;;;;;;;17.15;42.62;102883.84;4954313;29;20031;-71
2022/04/16 06:05:22;;;;;;;26.75;12.18;;;;;;;17.29;43.29;102879.06;4955202;29;20034;-71
2022/04/16 06:07:47;;;;;;;21.13;10.68;;;;;;;17.45;42.13;102881.38;4956191;29;20114;-70
2022/04/16 06:10:12;;;;;;;21.83;10.93;;;;;;;17.56;42.59;102881.41;4954632;29;20519;-70
2022/04/16 06:12:38;;;;;;;20.73;11.73;;;;;;;17.69;42.48;102895.72;4954271;29;20445;-71
2022/04/16 06:15:03;;;;;;;21.42;10.50;;;;;;;17.81;42.44;102888.44;4954612;29;20023;-71
2022/04/16 06:17:29;;;;;;;20.63;11.50;;;;;;;17.90;42.33;102890.38;4955598;29;20370;-70
2022/04/16 06:19:54;;;;;;;20.13;10.18;;;;;;;17.99;42.38;102893.19;4955650;29;20053;-71
2022/04/16 06:22:20;;;;;;;22.88;10.90;;;;;;;18.12;41.91;102897.63;4955706;29;20034;-70
2022/04/16 06:24:46;;;;;;;20.90;10.98;;;;;;;18.24;42.51;102902.00;4938743;29;20389;-70
2022/04/16 06:27:12;;;;;;;18.05;10.70;;;;;;;18.32;41.59;102900.38;4954482;29;20027;-70
2022/04/16 06:29:38;;;;;;;19.83;11.48;;;;;;;18.46;41.10;102912.78;4955120;29;20120;-70
2022/04/16 06:32:04;;;;;;;19.52;10.70;;;;;;;18.57;41.64;102915.47;4955483;29;20454;-71
2022/04/16 06:34:29;;;;;;;20.83;10.68;;;;;;;18.71;41.33;102912.44;4954130;29;20043;-70
2022/04/16 06:36:54;;;;;;;21.73;10.45;;;;;;;18.86;41.43;102913.84;4955867;29;20517;-70
2022/04/16 06:39:20;;;;;;;20.15;11.27;;;;;;;18.98;40.85;102912.78;4955782;29;20062;-70
2022/04/16 06:41:45;;;;;;;21.00;11.05;;;;;;;19.08;41.45;102916.44;4955712;29;20074;-70
2022/04/16 06:44:10;;;;;;;17.05;10.45;;;;;;;19.21;41.11;102909.94;4955319;29;20119;-71
2022/04/16 06:46:36;;;;;;;22.85;11.85;;;;;;;19.33;41.48;102906.13;4954929;29;20031;-71
2022/04/16 06:49:01;;;;;;;21.48;11.43;;;;;;;19.50;41.31;102909.13;4954038;29;20027;-70
2022/04/16 06:51:27;;;;;;;25.05;11.68;;;;;;;19.68;40.64;102902.03;4955168;29;20098;-70
2022/04/16 06:53:52;;;;;;;19.33;9.93;;;;;;;19.85;40.56;102902.38;4954930;29;20472;-70
2022/04/16 06:56:17;;;;;;;20.17;10.95;;;;;;;20.04;41.01;102906.03;4953573;29;20448;-70
2022/04/16 06:58:43;;;;;;;17.48;9.65;;;;;;;20.20;39.82;102902.75;4954780;29;20114;-71
2022/04/16 07:01:08;;;;;;;17.92;10.88;;;;;;;20.34;40.32;102902.34;4954899;29;20027;-71
2022/04/16 07:03:34;;;;;;;18.63;10.30;;;;;;;20.48;40.52;102892.91;4955840;29;20443;-70
2022/04/16 07:06:00;;;;;;;19.67;10.60;;;;;;;20.63;40.33;102908.66;4955216;29;20023;-70
2022/04/16 07:08:25;;;;;;;21.55;10.98;;;;;;;20.76;39.94;102897.47;4954929;29;20477;-70
2022/04/16 07:10:50;;;;;;;18.55;10.10;;;;;;;20.86;40.12;102898.31;4954955;29;20023;-69
2022/04/16 07:13:16;;;;;;;19.42;10.82;;;;;;;20.99;39.88;102896.16;4952561;28;20038;-71
2022/04/16 07:15:41;;;;;;;19.45;9.98;;;;;;;21.12;39.56;102896.72;4954641;29;20027;-70
2022/04/16 07:18:07;;;;;;;18.48;9.77;;;;;;;21.25;39.54;102894.53;4940114;28;20042;-70
2022/04/16 07:20:33;;;;;;;18.50;11.00;;;;;;;21.43;38.75;102897.34;4972910;28;20141;-70
2022/04/16 07:22:59;;;;;;;18.90;10.85;;;;;;;21.58;38.82;102901.28;4972553;28;20027;-71
2022/04/16 07:25:25;;;;;;;17.58;10.13;;;;;;;21.76;39.43;102901.34;4974006;28;20435;-70
2022/04/16 07:27:51;;;;;;;22.77;10.23;;;;;;;21.90;39.07;102907.22;4974565;28;20499;-72
2022/04/16 07:30:16;;;;;;;17.42;9.45;;;;;;;21.98;38.44;102899.13;4972933;28;20038;-70
2022/04/16 07:32:42;;;;;;;16.13;10.55;;;;;;;22.09;39.08;102900.75;4974076;28;20081;-71
2022/04/16 07:35:07;;;;;;;19.05;11.00;;;;;;;22.19;38.39;102901.56;4972530;28;20113;-70
2022/04/16 07:37:33;;;;;;;18.55;10.27;;;;;;;22.25;38.29;102900.94;4956625;28;20056;-70
2022/04/16 07:39:58;;;;;;;18.92;9.82;;;;;;;22.32;38.25;102906.66;4972988;28;20046;-70
2022/04/16 07:42:27;;;;;;;15.35;9.95;;;;;;;22.37;38.51;102905.16;4973988;28;20481;-70
2022/04/16 07:44:56;;;;;;;17.08;9.23;;;;;;;22.44;38.60;102909.00;4972835;28;20508;-70
2022/04/16 07:47:21;;;;;;;18.65;9.48;;;;;;;22.47;38.39;102905.94;4973156;28;20491;-70
2022/04/16 07:49:47;;;;;;;17.08;9.60;;;;;;;22.56;37.41;102899.53;4975388;28;20141;-70
2022/04/16 07:52:12;;;;;;;17.67;9.70;;;;;;;22.74;37.90;102906.91;4972740;28;20033;-68
2022/04/16 07:54:37;;;;;;;18.45;10.57;;;;;;;22.88;37.50;102911.81;4973862;28;20031;-69
2022/04/16 07:57:06;;;;;;;15.13;8.90;;;;;;;23.00;37.13;102902.34;4973006;28;20500;-70
2022/04/16 07:59:32;;;;;;;16.08;9.95;;;;;;;23.08;37.62;102907.84;4972135;28;20499;-71
2022/04/16 08:01:58;;;;;;;15.13;8.93;;;;;;;23.11;37.40;102904.81;4972746;28;20023;-71
2022/04/16 08:04:23;;;;;;;17.65;9.40;;;;;;;23.23;37.19;102908.13;4973722;28;20527;-70
2022/04/16 08:06:49;;;;;;;16.10;9.35;;;;;;;23.35;37.01;102907.69;4973267;28;20034;-71
2022/04/16 08:09:14;;;;;;;18.80;9.68;;;;;;;23.46;37.20;102904.72;4972659;28;20069;-71
2022/04/16 08:11:40;;;;;;;15.65;9.85;;;;;;;23.59;37.11;102905.09;4974271;28;20105;-69
2022/04/16 08:14:06;;;;;;;15.63;9.40;;;;;;;23.72;36.41;102904.66;4972886;28;20061;-71
2022/04/16 08:16:31;;;;;;;14.68;9.30;;;;;;;23.80;36.54;102912.06;4972532;28;20034;-70
2022/04/16 08:18:57;;;;;;;15.23;9.43;;;;;;;23.88;36.85;102915.69;4972837;28;20030;-70
2022/04/16 08:21:25;;;;;;;12.55;8.02;;;;;;;24.01;36.14;102904.28;4956692;28;20030;-71
2022/04/16 08:26:35;;;;;;;16.40;9.32;;;;;;;24.35;36.26;102907.78;4976171;28;20041;-70
2022/04/16 08:29:00;;;;;;;15.75;8.43;;;;;;;24.45;35.81;102913.13;4977300;28;20043;-70
2022/04/16 08:31:26;;;;;;;15.15;8.73;;;;;;;24.61;36.03;102908.53;4976381;28;20554;-70
2022/04/16 08:33:51;;;;;;;12.32;8.15;;;;;;;24.84;35.99;102914.22;4977450;28;20030;-70
2022/04/16 08:36:17;;;;;;;15.68;9.88;;;;;;;25.02;35.82;102906.66;4975931;28;20035;-70
2022/04/16 08:38:42;;;;;;;19.02;10.13;;;;;;;25.24;35.73;102913.28;4977062;28;20082;-70
2022/04/16 08:41:09;;;;;;;18.33;8.45;;;;;;;25.43;34.41;102904.69;4976706;28;20046;-69
2022/04/16 08:43:35;;;;;;;13.95;7.90;;;;;;;25.59;35.14;102921.13;4975929;28;20058;-70
2022/04/16 08:46:00;;;;;;;12.18;8.05;;;;;;;25.63;34.29;102916.16;4975821;28;20495;-70
2022/04/16 08:48:26;;;;;;;13.30;8.27;;;;;;;25.70;34.40;102907.03;4975872;28;20027;-70
2022/04/16 08:50:52;;;;;;;13.77;8.50;;;;;;;25.84;34.15;102914.50;4975598;28;20037;-70
2022/04/16 08:53:17;;;;;;;13.68;7.28;;;;;;;25.97;33.76;102905.69;4975320;28;20027;-72
2022/04/16 08:55:43;;;;;;;13.18;8.20;;;;;;;26.21;34.03;102907.47;4975221;28;20432;-70
2022/04/16 08:58:08;;;;;;;13.18;8.15;;;;;;;26.34;34.13;102907.72;4975698;28;20543;-71
2022/04/16 09:00:33;;;;;;;12.68;7.50;;;;;;;26.44;33.60;102900.09;4970699;28;20126;-70
2022/04/16 09:02:59;;;;;;;13.68;7.70;;;;;;;26.54;33.43;102898.84;4969742;28;20042;-70
2022/04/16 09:05:26;;;;;;;12.48;7.20;;;;;;;26.57;33.28;102900.34;4971846;28;20150;-70
2022/04/16 09:07:56;;;;;;;12.77;7.35;;;;;;;26.55;33.32;102902.41;4959102;28;20476;-70
2022/04/16 09:10:25;;;;;;;9.90;6.57;;;;;;;26.55;33.30;102902.41;4975192;28;20049;-70
2022/04/16 09:12:51;;;;;;;12.95;7.45;;;;;;;26.57;32.79;102900.34;4974977;28;20085;-70
2022/04/16 09:15:17;;;;;;;9.73;7.00;;;;;;;26.67;33.29;102906.44;4976491;28;20396;-70
2022/04/16 09:17:43;;;;;;;10.77;7.28;;;;;;;26.86;32.55;102899.59;4974857;28;20041;-70
2022/04/16 09:20:10;;;;;;;13.05;7.47;;;;;;;27.02;32.75;102907.72;4974910;28;20069;-70
2022/04/16 09:22:37;;;;;;;13.38;7.78;;;;;;;27.17;32.84;102898.44;4974945;28;20082;-71
2022/04/16 09:25:04;;;;;;;14.05;6.72;;;;;;;27.16;32.53;102896.72;4958659;28;20058;-70
2022/04/16 09:27:43;;;;;;;8.73;5.78;;;;;;;27.32;31.78;102890.22;4974813;28;20027;-71
2022/04/16 09:30:09;;;;;;;12.25;7.00;;;;;;;26.70;33.04;102902.47;4974636;28;20109;-70
2022/04/16 09:32:43;;;;;;;10.68;5.97;;;;;;;26.34;32.84;102900.34;4976517;28;20046;-69
2022/04/16 09:35:09;;;;;;;9.85;5.72;;;;;;;26.33;31.92;102906.88;4974669;28;20050;-70
2022/04/16 09:37:34;;;;;;;11.52;6.05;;;;;;;26.19;31.91;102891.16;4974142;28;20090;-70
2022/04/16 09:40:10;;;;;;;9.15;5.10;;;;;;;26.50;31.33;102893.88;4975869;28;20077;-70
2022/04/16 09:42:36;;;;;;;11.32;6.38;;;;;;;26.60;31.37;102887.06;4976120;28;20054;-70
2022/04/16 09:45:13;;;;;;;8.45;5.70;;;;;;;26.90;31.39;102885.31;4958752;28;20035;-70
2022/04/16 09:47:38;;;;;;;10.85;6.00;;;;;;;26.92;31.47;102885.97;4974187;28;20034;-70
2022/04/16 09:50:04;;;;;;;8.20;5.88;;;;;;;26.81;31.58;102896.56;4941987;28;20420;-70
2022/04/16 09:52:30;;;;;;;6.45;4.53;;;;;;;27.71;30.40;102884.44;4941998;28;20039;-70
2022/04/16 09:54:58;;;;;;;3.67;2.60;;;;;;;28.94;29.62;102890.69;4957678;28;20123;-70
2022/04/16 09:57:25;;;;;;;8.23;4.45;;;;;;;31.08;26.83;102890.91;4957756;28;20031;-70
2022/04/16 09:59:52;;;;;;;6.22;4.00;;;;;;;31.92;26.46;102877.91;4973666;28;20026;-70
2022/04/16 10:02:18;;;;;;;4.78;3.45;;;;;;;31.35;26.90;102872.34;4957558;28;20059;-71
2022/04/16 10:04:44;;;;;;;4.85;3.72;;;;;;;31.01;27.22;102881.78;4973601;28;20069;-72
2022/04/16 10:07:10;;;;;;;6.32;4.22;;;;;;;30.74;27.43;102882.81;4973436;28;20068;-70
2022/04/16 10:09:41;;;;;;;5.65;3.80;;;;;;;30.20;27.52;102872.72;4973586;28;20031;-70
2022/04/16 10:15:05;;;;;;;5.18;3.70;;;;;;;30.39;27.21;102880.22;4971336;28;20035;-71
2022/04/16 10:17:52;;;;;;;4.80;3.30;;;;;;;30.72;26.89;102879.41;4955184;28;20031;-71
2022/04/16 10:20:19;;;;;;;4.65;3.15;;;;;;;31.18;26.48;102874.72;4955524;28;20493;-68
2022/04/16 10:22:59;;;;;;;4.97;3.05;;;;;;;31.61;25.81;102875.03;4938213;29;20031;-67
2022/04/16 10:25:39;;;;;;;7.03;3.30;;;;;;;31.85;25.63;102876.25;4954172;29;20078;-67
2022/04/16 10:28:09;;;;;;;3.47;2.53;;;;;;;32.17;24.81;102884.41;4954141;29;20027;-69
2022/04/16 10:30:40;;;;;;;3.65;2.60;;;;;;;32.43;24.66;102875.06;4955229;28;20030;-70
2022/04/16 10:33:20;;;;;;;3.97;2.58;;;;;;;32.66;24.36;102868.97;4954569;29;20025;-71
2022/04/16 10:36:02;;;;;;;3.50;2.88;;;;;;;32.81;24.68;102870.31;4937911;29;20392;-71
2022/04/16 10:38:37;;;;;;;;;;;;;;;32.80;25.65;102871.38;4954191;29;20541;-70
2022/04/16 10:41:13;;;;;;;3.10;2.30;;;;;;;32.66;24.45;102864.25;4953768;29;19960;-72
2022/04/16 10:43:39;;;;;;;4.05;2.30;;;;;;;32.69;24.00;102869.34;4953709;29;20031;-71
2022/04/16 10:46:09;;;;;;;3.67;2.40;;;;;;;32.78;24.39;102862.44;4937723;29;20412;-72
2022/04/16 10:48:35;;;;;;;3.22;2.60;;;;;;;32.80;24.09;102859.44;4955002;28;20396;-71
2022/04/16 10:51:00;;;;;;;3.92;2.60;;;;;;;32.92;23.17;102851.19;4953946;29;20152;-72
2022/04/16 10:53:33;;;;;;;3.92;2.72;;;;;;;33.13;23.01;102856.38;4954001;29;20110;-71
2022/04/16 10:56:13;;;;;;;4.53;2.70;;;;;;;33.23;23.74;102853.88;4953762;29;20031;-71
2022/04/16 10:58:43;;;;;;;5.03;2.85;;;;;;;33.21;23.52;102856.06;4953885;29;20082;-70
2022/04/16 11:01:13;;;;;;;4.55;2.92;;;;;;;33.20;23.46;102848.78;4937897;29;20447;-70
2022/04/16 11:03:44;;;;;;;3.72;2.67;;;;;;;33.30;23.42;102849.13;4953868;29;20035;-71
2022/04/16 11:06:09;;;;;;;4.93;2.85;;;;;;;33.27;22.52;102846.81;4954849;28;20019;-71
2022/04/16 11:08:35;;;;;;;2.95;2.30;;;;;;;33.12;23.29;102840.75;4953372;29;20500;-71
2022/04/16 11:11:04;;;;;;;3.47;2.55;;;;;;;33.06;23.41;102841.69;4921812;29;20450;-71
2022/04/16 11:13:34;;;;;;;4.32;2.28;;;;;;;33.18;22.58;102831.50;4953928;29;20558;-71
2022/04/16 11:15:59;;;;;;;4.22;2.42;;;;;;;33.35;22.72;102829.81;4953572;29;20027;-71
2022/04/16 11:18:26;;;;;;;5.13;2.45;;;;;;;33.42;22.41;102835.31;4954694;28;20038;-72
2022/04/16 11:20:57;;;;;;;3.28;2.45;;;;;;;33.48;22.24;102849.09;4954502;28;20364;-72
2022/04/16 11:23:27;;;;;;;2.85;2.10;;;;;;;33.52;23.19;102830.91;4953455;29;20031;-71
2022/04/16 11:34:20;;;;;;;4.00;2.30;;;;;;;33.71;22.22;102842.88;4954304;29;20090;-71
2022/04/16 11:36:52;;;;;;;2.65;2.30;;;;;;;33.66;22.23;102840.81;4953456;29;20038;-71
2022/04/16 11:39:28;;;;;;;3.65;2.55;;;;;;;33.67;22.21;102850.81;4953057;29;20464;-70
2022/04/16 11:41:55;;;;;;;4.53;2.47;;;;;;;33.48;22.99;102840.78;4954189;28;20043;-69